Time;durP1;ratioP1;P1;durP2;ratioP2;P2;SDS_P1;SDS_P2;PMS_P1;PMS_P2;Temp;Humidity;BMP_temperature;BMP_pressure;BME280_temperature;BME280_humidity;BME280_pressure;Samples;Min_cycle;Max_cycle;Signal;HPM_P1;HPM_P2
2022/05/09 00:00:28;;;;;;;1.00;0.30;;;6.70;99.90;;;;;;5039863;28;20039;-63
2022/05/09 00:02:54;;;;;;;1.52;0.40;;;6.60;99.90;;;;;;5041136;28;20109;-63
2022/05/09 00:05:24;;;;;;;0.80;0.30;;;6.60;99.90;;;;;;5045541;28;20476;-63
2022/05/09 00:07:50;;;;;;;0.95;0.35;;;6.70;99.90;;;;;;5044041;28;20025;-63
2022/05/09 00:10:18;;;;;;;0.47;0.30;;;6.60;99.90;;;;;;5043974;28;20025;-63
2022/05/09 00:12:44;;;;;;;0.93;0.30;;;6.60;99.90;;;;;;5039881;28;20043;-63
2022/05/09 00:15:12;;;;;;;1.10;0.30;;;6.60;99.90;;;;;;5043669;28;20444;-63
2022/05/09 00:17:37;;;;;;;1.05;0.30;;;6.50;99.90;;;;;;5042584;28;20727;-62
2022/05/09 00:20:04;;;;;;;1.20;0.32;;;6.50;99.90;;;;;;5040870;28;20025;-63
2022/05/09 00:22:30;;;;;;;0.45;0.30;;;6.50;99.90;;;;;;5040127;28;20091;-63
2022/05/09 00:24:59;;;;;;;0.70;0.30;;;6.50;99.90;;;;;;5045510;28;20480;-63
2022/05/09 00:27:25;;;;;;;1.65;0.40;;;6.50;99.90;;;;;;5044466;28;20017;-63
2022/05/09 00:29:51;;;;;;;1.63;0.40;;;6.50;99.90;;;;;;5045951;28;20049;-63
2022/05/09 00:32:16;;;;;;;1.80;0.43;;;6.50;99.90;;;;;;5040492;28;20024;-63
2022/05/09 00:34:42;;;;;;;1.65;0.40;;;6.50;99.90;;;;;;5043543;28;20036;-63
2022/05/09 00:37:07;;;;;;;1.08;0.35;;;6.40;99.90;;;;;;5047411;28;20396;-64
2022/05/09 00:39:33;;;;;;;1.60;0.40;;;6.40;99.90;;;;;;5039668;28;20246;-65
2022/05/09 00:42:13;;;;;;;1.45;0.40;;;6.50;99.90;;;;;;5041597;28;20029;-64
2022/05/09 00:44:39;;;;;;;1.33;0.40;;;6.40;99.90;;;;;;5039659;28;20060;-65
2022/05/09 00:47:05;;;;;;;1.13;0.38;;;6.40;99.90;;;;;;5042807;28;20017;-65
2022/05/09 00:49:37;;;;;;;1.02;0.38;;;6.40;99.90;;;;;;5045254;28;20460;-63
2022/05/09 00:52:03;;;;;;;;;;;6.30;99.90;;;;;;5044589;28;20034;-64
2022/05/09 00:54:37;;;;;;;1.33;0.40;;;6.30;99.90;;;;;;5044396;28;19924;-64
2022/05/09 00:57:09;;;;;;;1.45;0.40;;;6.30;99.90;;;;;;5041877;28;20026;-64
2022/05/09 00:59:38;;;;;;;0.90;0.35;;;6.30;99.90;;;;;;5040520;28;20025;-64
2022/05/09 01:02:04;;;;;;;1.02;0.38;;;6.20;99.90;;;;;;5045571;28;20029;-64
2022/05/09 01:04:38;;;;;;;1.48;0.40;;;6.20;99.90;;;;;;5045654;28;20575;-65
2022/05/09 01:07:04;;;;;;;0.93;0.30;;;6.20;99.90;;;;;;5042209;28;20029;-64
2022/05/09 01:09:30;;;;;;;1.08;0.63;;;6.30;99.90;;;;;;5045520;28;20021;-65
2022/05/09 01:11:55;;;;;;;1.08;0.38;;;6.20;99.90;;;;;;5048239;28;20393;-64
2022/05/09 01:14:27;;;;;;;1.02;0.30;;;6.20;99.90;;;;;;5039549;28;20037;-65
2022/05/09 01:16:53;;;;;;;;;;;6.20;99.90;;;;;;5043659;28;20021;-64
2022/05/09 01:19:27;;;;;;;1.15;0.35;;;6.10;99.90;;;;;;5041366;28;19943;-64
2022/05/09 01:21:54;;;;;;;0.90;0.30;;;6.10;99.90;;;;;;5038740;28;20036;-64
2022/05/09 01:24:22;;;;;;;0.75;0.30;;;6.00;99.90;;;;;;5043564;28;20036;-64
2022/05/09 01:26:49;;;;;;;1.33;0.47;;;6.10;99.90;;;;;;5040915;28;20017;-64
2022/05/09 01:29:21;;;;;;;1.67;0.40;;;6.00;99.90;;;;;;5041625;28;20017;-64
2022/05/09 01:31:50;;;;;;;1.10;0.40;;;5.90;99.90;;;;;;5042999;28;20032;-64
2022/05/09 01:34:17;;;;;;;0.95;0.30;;;5.90;99.90;;;;;;5042115;28;20037;-64
2022/05/09 01:36:44;;;;;;;1.23;0.40;;;5.90;99.90;;;;;;5040329;28;20144;-65
2022/05/09 01:39:12;;;;;;;0.52;0.30;;;5.90;99.90;;;;;;5043336;28;20033;-65
2022/05/09 01:41:43;;;;;;;1.48;0.40;;;5.80;99.90;;;;;;5042636;28;20017;-64
2022/05/09 01:44:10;;;;;;;0.43;0.30;;;5.80;99.90;;;;;;5045632;28;21471;-64
2022/05/09 01:49:29;;;;;;;0.30;0.30;;;5.80;99.90;;;;;;5041085;28;20036;-64
2022/05/09 01:49:29;;;;;;;0.85;0.30;;;5.70;99.90;;;;;;5041036;28;20033;-64
2022/05/09 01:51:55;;;;;;;0.80;0.30;;;5.70;99.90;;;;;;5041120;28;20068;-64
2022/05/09 01:54:21;;;;;;;0.70;0.30;;;5.70;99.90;;;;;;5048157;28;20101;-65
2022/05/09 01:56:47;;;;;;;0.80;0.30;;;5.70;99.90;;;;;;5047981;28;20052;-64
2022/05/09 01:59:13;;;;;;;1.10;0.35;;;5.60;99.90;;;;;;5042858;28;20030;-65
2022/05/09 02:01:45;;;;;;;0.88;0.30;;;5.60;99.90;;;;;;5039226;28;20025;-63
2022/05/09 02:04:11;;;;;;;1.73;0.40;;;5.50;99.90;;;;;;5045244;28;20025;-64
2022/05/09 02:06:38;;;;;;;0.80;0.30;;;5.50;99.90;;;;;;5044261;28;20056;-63
2022/05/09 02:09:04;;;;;;;1.38;0.40;;;5.50;99.90;;;;;;5040223;28;20021;-63
2022/05/09 02:11:30;;;;;;;1.23;0.40;;;5.50;99.90;;;;;;5037800;28;20142;-63
2022/05/09 02:13:56;;;;;;;0.45;0.30;;;5.50;99.90;;;;;;5039835;28;20040;-63
2022/05/09 02:16:21;;;;;;;0.82;0.30;;;5.50;99.90;;;;;;5038689;28;20045;-63
2022/05/09 02:18:47;;;;;;;1.13;0.35;;;5.50;99.90;;;;;;5043753;28;20047;-64
2022/05/09 02:21:13;;;;;;;0.70;0.30;;;5.50;99.90;;;;;;5039840;28;20116;-64
2022/05/09 02:23:38;;;;;;;1.60;0.40;;;5.40;99.90;;;;;;5041018;28;20037;-64
2022/05/09 02:26:04;;;;;;;0.90;0.30;;;5.40;99.90;;;;;;5039759;28;20167;-64
2022/05/09 02:28:30;;;;;;;0.80;0.30;;;5.40;99.90;;;;;;5042135;28;20025;-65
2022/05/09 02:30:56;;;;;;;1.15;0.30;;;5.40;99.90;;;;;;5045122;28;20089;-64
2022/05/09 02:33:22;;;;;;;1.38;0.40;;;5.30;99.90;;;;;;5042581;28;20824;-64
2022/05/09 02:35:48;;;;;;;1.23;0.35;;;5.30;99.90;;;;;;5044674;28;20025;-64
2022/05/09 02:38:14;;;;;;;1.05;0.35;;;5.30;99.90;;;;;;5044061;28;20064;-64
2022/05/09 02:40:40;;;;;;;1.75;0.40;;;5.30;99.90;;;;;;5043111;28;20117;-64
2022/05/09 02:43:06;;;;;;;1.50;0.35;;;5.20;99.90;;;;;;5039514;28;20120;-64
2022/05/09 02:45:33;;;;;;;1.17;0.32;;;5.20;99.90;;;;;;5043217;28;20025;-64
2022/05/09 02:47:59;;;;;;;1.48;0.30;;;5.20;99.90;;;;;;5040005;28;20025;-64
2022/05/09 02:50:25;;;;;;;1.45;0.40;;;5.20;99.90;;;;;;5042174;28;21052;-64
2022/05/09 02:52:52;;;;;;;1.48;0.40;;;5.20;99.90;;;;;;5037404;28;20045;-64
2022/05/09 02:55:19;;;;;;;0.88;0.30;;;5.30;99.90;;;;;;5043572;28;20080;-64
2022/05/09 02:57:45;;;;;;;1.60;0.40;;;5.20;99.90;;;;;;5035482;28;20059;-64
2022/05/09 03:00:20;;;;;;;1.60;0.40;;;5.10;99.90;;;;;;5044476;28;20026;-64
2022/05/09 03:04:38;;;;;;;1.38;0.40;;;5.10;99.90;;;;;;5044644;28;20032;-64
2022/05/09 03:05:33;;;;;;;1.30;0.30;;;5.10;99.90;;;;;;5039067;28;20041;-64
2022/05/09 03:08:00;;;;;;;2.05;0.50;;;5.10;99.90;;;;;;5044124;28;20396;-65
2022/05/09 03:10:28;;;;;;;1.25;0.32;;;5.10;99.90;;;;;;5037479;28;20072;-64
2022/05/09 03:12:59;;;;;;;1.77;0.40;;;5.10;99.90;;;;;;5038935;28;20053;-64
2022/05/09 03:15:26;;;;;;;1.73;0.40;;;5.00;99.90;;;;;;5045259;28;20461;-64
2022/05/09 03:17:52;;;;;;;1.45;0.35;;;5.10;99.90;;;;;;5041287;28;20734;-67
2022/05/09 03:20:17;;;;;;;1.30;0.40;;;5.10;99.90;;;;;;5041637;28;20053;-64
2022/05/09 03:22:43;;;;;;;1.13;0.30;;;5.00;99.90;;;;;;5040444;28;20033;-64
2022/05/09 03:25:10;;;;;;;0.90;0.40;;;5.10;99.90;;;;;;5039618;28;20114;-64
2022/05/09 03:27:35;;;;;;;1.80;0.40;;;5.10;99.90;;;;;;5036499;28;20022;-64
2022/05/09 03:30:01;;;;;;;1.55;0.40;;;5.10;99.90;;;;;;5038811;28;20037;-64
2022/05/09 03:32:27;;;;;;;1.90;0.50;;;5.10;99.90;;;;;;5036541;28;20029;-64
2022/05/09 03:34:54;;;;;;;1.08;0.30;;;5.10;99.90;;;;;;5041019;28;20109;-63
2022/05/09 03:37:21;;;;;;;1.35;0.40;;;5.10;99.90;;;;;;5037345;28;20080;-64
2022/05/09 03:39:46;;;;;;;1.00;0.30;;;5.10;99.90;;;;;;5042094;28;20036;-64
2022/05/09 03:42:12;;;;;;;1.73;0.40;;;5.00;99.90;;;;;;5041064;28;20017;-64
2022/05/09 03:44:37;;;;;;;1.58;0.40;;;5.00;99.90;;;;;;5039984;28;20044;-64
2022/05/09 03:47:03;;;;;;;1.50;0.40;;;4.90;99.90;;;;;;5041083;28;20053;-64
2022/05/09 03:49:29;;;;;;;1.67;0.40;;;4.90;99.90;;;;;;5044490;28;20039;-65
2022/05/09 03:51:55;;;;;;;1.25;0.40;;;4.90;99.90;;;;;;5044101;28;20061;-64
2022/05/09 03:54:21;;;;;;;1.33;0.38;;;5.00;99.90;;;;;;5048612;28;20041;-64
2022/05/09 03:56:46;;;;;;;1.08;0.30;;;5.00;99.90;;;;;;5042915;28;20029;-65
2022/05/09 03:59:12;;;;;;;1.45;0.35;;;5.00;99.90;;;;;;5043931;28;20105;-65
2022/05/09 04:01:38;;;;;;;1.23;0.40;;;5.00;99.90;;;;;;5042738;28;20041;-64
2022/05/09 04:04:04;;;;;;;1.65;0.30;;;5.00;99.90;;;;;;5044005;28;20049;-64
2022/05/09 04:06:29;;;;;;;1.67;0.40;;;5.00;99.90;;;;;;5043207;28;20048;-65
2022/05/09 04:08:56;;;;;;;1.50;0.40;;;5.10;99.90;;;;;;5041675;28;20060;-65
2022/05/09 04:11:21;;;;;;;0.93;0.30;;;5.10;99.90;;;;;;5042782;28;20026;-64
2022/05/09 04:13:47;;;;;;;1.17;0.30;;;5.10;99.90;;;;;;5045966;28;20048;-64
2022/05/09 04:18:59;;;;;;;1.30;0.38;;;5.10;99.90;;;;;;5039293;28;20558;-65
2022/05/09 04:21:26;;;;;;;1.55;0.40;;;5.10;99.90;;;;;;5050488;28;20028;-65
2022/05/09 04:23:56;;;;;;;1.20;0.40;;;5.10;99.90;;;;;;5044541;28;20118;-64
2022/05/09 04:26:23;;;;;;;1.30;0.30;;;5.10;99.90;;;;;;5042152;28;20048;-64
2022/05/09 04:28:49;;;;;;;1.80;0.40;;;5.20;99.90;;;;;;5043749;28;20026;-64
2022/05/09 04:31:15;;;;;;;1.52;0.40;;;5.20;99.90;;;;;;5041119;28;20030;-65
2022/05/09 04:33:42;;;;;;;1.45;0.38;;;5.20;99.90;;;;;;5045917;28;20048;-65
2022/05/09 04:36:07;;;;;;;1.27;0.38;;;5.30;99.90;;;;;;5043753;28;20030;-65
2022/05/09 04:38:38;;;;;;;1.13;0.30;;;5.30;99.90;;;;;;5039882;28;20230;-65
2022/05/09 04:41:04;;;;;;;0.98;0.30;;;5.40;99.90;;;;;;5043713;28;20258;-66
2022/05/09 04:43:31;;;;;;;1.23;0.40;;;5.50;99.90;;;;;;5044062;28;20086;-64
2022/05/09 04:46:01;;;;;;;0.93;0.30;;;5.60;99.90;;;;;;5042151;28;20090;-71
2022/05/09 04:48:27;;;;;;;1.92;0.47;;;5.60;99.90;;;;;;5042831;28;20091;-64
2022/05/09 04:50:53;;;;;;;1.45;0.40;;;5.70;99.90;;;;;;5039561;28;20036;-65
2022/05/09 04:53:19;;;;;;;1.50;0.60;;;5.80;99.90;;;;;;5043278;28;20048;-65
2022/05/09 04:55:45;;;;;;;0.88;0.30;;;5.90;99.90;;;;;;5048339;28;20072;-65
2022/05/09 04:58:17;;;;;;;1.20;0.30;;;5.90;99.90;;;;;;5047914;28;20421;-65
2022/05/09 05:00:43;;;;;;;0.52;0.30;;;5.90;99.90;;;;;;5048274;28;20025;-65
2022/05/09 05:03:08;;;;;;;0.93;0.30;;;6.00;99.90;;;;;;5049110;28;20029;-65
2022/05/09 05:05:34;;;;;;;1.30;0.30;;;6.00;99.90;;;;;;5051286;28;20029;-65
2022/05/09 05:08:00;;;;;;;1.55;0.40;;;6.00;99.90;;;;;;5049702;28;20052;-65
2022/05/09 05:10:27;;;;;;;1.35;0.40;;;6.00;99.90;;;;;;5046959;28;20017;-65
2022/05/09 05:12:53;;;;;;;1.45;0.40;;;6.10;99.90;;;;;;5051485;28;20051;-66
2022/05/09 05:15:18;;;;;;;1.08;0.30;;;6.20;99.90;;;;;;5052075;28;20025;-65
2022/05/09 05:17:44;;;;;;;1.33;0.40;;;6.20;99.90;;;;;;5050831;28;20036;-65
2022/05/09 05:20:13;;;;;;;1.08;0.30;;;6.30;99.90;;;;;;5050592;28;20056;-65
2022/05/09 05:22:42;;;;;;;0.57;0.30;;;6.40;99.90;;;;;;5046992;28;20028;-65
2022/05/09 05:25:11;;;;;;;1.15;0.30;;;6.50;99.90;;;;;;5048418;28;20049;-65
2022/05/09 05:27:37;;;;;;;1.52;0.40;;;6.50;99.90;;;;;;5048804;28;20182;-65
2022/05/09 05:30:04;;;;;;;1.65;0.60;;;6.60;99.90;;;;;;5051728;28;20028;-64
2022/05/09 05:32:35;;;;;;;1.40;0.38;;;6.70;99.90;;;;;;5052709;28;20018;-66
2022/05/09 05:35:01;;;;;;;1.30;0.50;;;6.70;99.90;;;;;;5045509;28;20045;-66
2022/05/09 05:37:27;;;;;;;1.08;0.30;;;6.80;99.90;;;;;;5056457;28;20043;-65
2022/05/09 05:39:53;;;;;;;1.15;0.35;;;7.00;99.90;;;;;;5042687;28;20056;-65
2022/05/09 05:42:20;;;;;;;0.65;0.30;;;7.10;99.90;;;;;;5049403;28;20030;-64
2022/05/09 05:44:48;;;;;;;0.70;0.30;;;7.30;99.90;;;;;;5053813;28;20060;-65
2022/05/09 05:47:16;;;;;;;1.92;0.50;;;7.50;99.90;;;;;;5060412;28;20029;-66
2022/05/09 05:49:42;;;;;;;0.88;0.30;;;7.70;99.90;;;;;;5042604;28;20021;-65
2022/05/09 05:52:11;;;;;;;1.08;0.38;;;8.00;99.90;;;;;;5056995;28;20485;-67
2022/05/09 05:54:40;;;;;;;1.05;0.30;;;8.40;99.90;;;;;;5056459;28;20073;-65
2022/05/09 05:57:07;;;;;;;1.15;0.35;;;8.70;99.90;;;;;;5059386;28;20032;-63
2022/05/09 05:59:33;;;;;;;1.38;0.40;;;9.20;99.90;;;;;;5059561;28;20025;-63
2022/05/09 06:02:00;;;;;;;0.75;0.30;;;9.60;99.90;;;;;;5047489;28;20517;-63
2022/05/09 06:04:25;;;;;;;1.13;0.30;;;10.30;99.90;;;;;;5053359;28;20120;-64
2022/05/09 06:06:51;;;;;;;0.38;0.22;;;10.90;99.90;;;;;;5047314;28;20034;-63
2022/05/09 06:09:17;;;;;;;0.43;0.30;;;11.40;99.90;;;;;;5041734;28;20022;-65
2022/05/09 06:11:43;;;;;;;0.77;0.52;;;11.80;99.90;;;;;;5051162;28;20099;-65
2022/05/09 06:14:11;;;;;;;0.70;0.30;;;11.80;99.90;;;;;;5047925;28;20049;-64
2022/05/09 06:16:37;;;;;;;0.65;0.30;;;12.30;99.90;;;;;;5054334;28;20025;-64
2022/05/09 06:19:04;;;;;;;0.90;0.40;;;13.00;99.90;;;;;;5050761;28;20059;-64
2022/05/09 06:21:33;;;;;;;0.77;0.30;;;13.30;99.90;;;;;;5057541;28;20021;-64
2022/05/09 06:24:00;;;;;;;1.08;0.30;;;13.40;99.90;;;;;;5049459;28;20473;-67
2022/05/09 06:26:27;;;;;;;1.98;0.77;;;13.70;99.90;;;;;;5043179;28;20036;-71
2022/05/09 06:28:53;;;;;;;0.77;0.30;;;13.80;99.90;;;;;;5048241;28;20021;-71
2022/05/09 06:31:19;;;;;;;0.75;0.30;;;14.00;99.90;;;;;;5034421;28;20030;-71
2022/05/09 06:33:44;;;;;;;0.60;0.30;;;15.10;99.90;;;;;;5029530;28;20061;-71
2022/05/09 06:36:10;;;;;;;0.38;0.20;;;14.90;99.90;;;;;;5057441;28;20041;-71
2022/05/09 06:38:36;;;;;;;1.75;0.52;;;14.90;99.90;;;;;;5060934;28;20048;-71
2022/05/09 06:41:02;;;;;;;0.70;0.30;;;14.70;99.90;;;;;;5060292;28;20062;-71
2022/05/09 06:43:30;;;;;;;0.73;0.40;;;15.40;99.90;;;;;;5056697;28;20378;-71
2022/05/09 06:45:56;;;;;;;0.52;0.20;;;15.60;99.90;;;;;;5045123;28;20033;-72
2022/05/09 06:48:22;;;;;;;0.80;0.30;;;16.10;99.90;;;;;;5039555;28;20040;-71
2022/05/09 06:50:48;;;;;;;0.65;0.22;;;16.70;99.90;;;;;;5050635;28;20025;-71
2022/05/09 06:53:14;;;;;;;0.75;0.30;;;17.40;99.90;;;;;;5052654;28;20052;-71
2022/05/09 06:55:40;;;;;;;0.75;0.25;;;17.30;99.90;;;;;;5040278;28;20017;-71
2022/05/09 06:58:08;;;;;;;0.60;0.22;;;17.80;99.90;;;;;;5060293;28;20075;-71
2022/05/09 07:00:34;;;;;;;1.25;0.60;;;18.10;99.90;;;;;;5058933;28;20021;-71
2022/05/09 07:03:00;;;;;;;0.45;0.20;;;18.60;99.90;;;;;;5042431;28;20033;-71
2022/05/09 07:05:26;;;;;;;0.10;0.10;;;19.30;90.60;;;;;;5039935;28;20045;-72
2022/05/09 07:07:52;;;;;;;2.30;0.47;;;19.00;88.70;;;;;;5050450;28;20057;-72
2022/05/09 07:10:19;;;;;;;0.30;0.20;;;19.40;95.50;;;;;;5048436;28;20040;-71
2022/05/09 07:12:50;;;;;;;0.68;0.25;;;19.00;89.80;;;;;;5058604;28;20072;-71
2022/05/09 07:15:18;;;;;;;;;;;18.60;89.30;;;;;;5057275;28;20033;-72
2022/05/09 07:17:45;;;;;;;0.57;0.30;;;18.30;92.90;;;;;;5038477;28;19905;-72
2022/05/09 07:20:11;;;;;;;0.38;0.15;;;18.20;99.10;;;;;;5039657;28;20091;-72
2022/05/09 07:22:37;;;;;;;0.43;0.20;;;18.10;99.00;;;;;;5040633;28;20029;-72
2022/05/09 07:25:04;;;;;;;0.32;0.17;;;18.10;98.80;;;;;;5059235;28;20029;-72
2022/05/09 07:27:30;;;;;;;0.60;0.20;;;18.10;98.90;;;;;;5052735;28;20089;-72
2022/05/09 07:29:56;;;;;;;0.75;0.40;;;18.20;98.50;;;;;;5039139;28;20081;-72
2022/05/09 07:32:22;;;;;;;0.35;0.10;;;18.30;94.10;;;;;;5041213;28;20033;-71
2022/05/09 07:34:49;;;;;;;0.68;0.20;;;18.50;93.90;;;;;;5057468;28;20036;-72
2022/05/09 07:37:15;;;;;;;0.30;0.13;;;18.50;90.00;;;;;;5053346;28;20068;-72
2022/05/09 07:39:41;;;;;;;0.57;0.20;;;18.60;91.80;;;;;;5039830;28;20018;-71
2022/05/09 07:42:08;;;;;;;0.47;0.13;;;18.60;94.90;;;;;;5022975;28;20060;-72
2022/05/09 07:44:33;;;;;;;0.40;0.17;;;18.70;87.00;;;;;;5049903;28;20018;-72
2022/05/09 07:46:59;;;;;;;0.68;0.20;;;18.90;90.30;;;;;;5045942;28;20029;-72
2022/05/09 07:49:25;;;;;;;0.28;0.10;;;19.40;94.90;;;;;;5059418;28;20029;-72
2022/05/09 07:51:50;;;;;;;0.38;0.17;;;19.80;94.90;;;;;;5058120;28;20028;-72
2022/05/09 07:54:16;;;;;;;0.35;0.17;;;19.80;73.30;;;;;;5052125;28;20045;-72
2022/05/09 07:56:43;;;;;;;0.17;0.10;;;20.20;71.90;;;;;;5021399;28;20022;-71
2022/05/09 07:59:10;;;;;;;0.13;0.10;;;20.50;62.10;;;;;;5057451;28;20028;-70
2022/05/09 08:01:36;;;;;;;0.32;0.13;;;20.50;65.10;;;;;;5056771;28;20025;-72
2022/05/09 08:04:01;;;;;;;0.10;0.10;;;21.90;66.80;;;;;;5056654;28;20032;-72
2022/05/09 08:06:27;;;;;;;0.28;0.10;;;22.60;56.90;;;;;;5057584;28;20033;-70
2022/05/09 08:08:53;;;;;;;0.17;0.10;;;23.20;53.60;;;;;;5046521;28;20034;-70
2022/05/09 08:11:20;;;;;;;0.30;0.10;;;23.50;49.60;;;;;;5039731;28;20021;-71
2022/05/09 08:13:47;;;;;;;0.10;0.10;;;24.00;49.80;;;;;;5039462;28;20367;-70
2022/05/09 08:16:14;;;;;;;0.17;0.10;;;24.20;47.60;;;;;;5053597;28;20036;-70
2022/05/09 08:18:40;;;;;;;0.15;0.10;;;24.90;49.80;;;;;;5054927;28;20102;-71
2022/05/09 08:21:06;;;;;;;0.10;0.10;;;24.70;43.80;;;;;;5038347;28;20124;-70
2022/05/09 08:23:33;;;;;;;0.10;0.10;;;23.70;44.50;;;;;;5039805;28;20029;-70
2022/05/09 08:26:03;;;;;;;0.28;0.10;;;24.50;45.10;;;;;;5047119;28;20025;-71
2022/05/09 08:28:29;;;;;;;0.10;0.10;;;25.40;46.50;;;;;;5062949;28;20052;-71
2022/05/09 08:30:55;;;;;;;0.17;0.10;;;25.30;45.00;;;;;;5044788;28;20022;-71
2022/05/09 08:33:26;;;;;;;0.20;0.10;;;25.30;43.20;;;;;;5042838;28;20379;-71
2022/05/09 08:35:53;;;;;;;0.00;0.00;;;26.40;41.00;;;;;;5044777;28;20105;-71
2022/05/09 08:38:20;;;;;;;0.17;0.10;;;26.80;43.80;;;;;;5055665;28;20024;-71
2022/05/09 08:40:54;;;;;;;0.45;0.20;;;26.80;39.70;;;;;;5044860;28;20076;-71
2022/05/09 08:43:30;;;;;;;0.10;0.10;;;27.40;40.50;;;;;;5042834;28;20056;-71
2022/05/09 08:46:35;;;;;;;0.20;0.20;;;27.40;39.50;;;;;;5042038;28;20029;-71
2022/05/09 08:49:45;;;;;;;0.10;0.10;;;27.80;39.10;;;;;;5042247;28;20036;-72
2022/05/09 08:52:14;;;;;;;0.10;0.10;;;27.70;38.20;;;;;;5003566;28;20044;-72
2022/05/09 08:54:40;;;;;;;0.00;0.00;;;26.70;36.70;;;;;;5033910;28;20049;-72
2022/05/09 08:57:16;;;;;;;0.10;0.10;;;26.40;37.70;;;;;;5032832;28;20045;-73
2022/05/09 08:59:53;;;;;;;0.20;0.20;;;26.40;39.10;;;;;;5043131;28;20025;-73
2022/05/09 09:02:32;;;;;;;0.05;0.05;;;25.90;38.90;;;;;;5041746;28;20111;-72
2022/05/09 09:04:59;;;;;;;0.03;0.03;;;25.10;39.00;;;;;;5042236;28;20032;-72
2022/05/09 09:07:49;;;;;;;0.10;0.10;;;25.60;37.30;;;;;;5059457;28;20043;-72
2022/05/09 09:10:23;;;;;;;0.10;0.03;;;25.80;40.60;;;;;;5059661;28;20033;-72
2022/05/09 09:13:10;;;;;;;0.10;0.10;;;25.90;41.50;;;;;;5056853;28;20576;-72
2022/05/09 09:15:41;;;;;;;0.17;0.10;;;25.80;39.20;;;;;;5046516;28;20085;-72
2022/05/09 09:18:25;;;;;;;0.10;0.10;;;25.30;40.20;;;;;;5040426;28;20037;-72
2022/05/09 09:21:22;;;;;;;0.10;0.10;;;26.40;41.60;;;;;;5042603;28;20036;-73
2022/05/09 09:24:01;;;;;;;0.03;0.03;;;25.70;37.30;;;;;;5058712;28;20029;-72
2022/05/09 09:26:45;;;;;;;0.08;0.08;;;26.00;37.60;;;;;;5060452;28;20037;-70
2022/05/09 09:29:18;;;;;;;0.10;0.10;;;25.60;39.10;;;;;;5061465;28;20105;-71
2022/05/09 09:31:52;;;;;;;0.00;0.00;;;26.30;36.90;;;;;;5053519;28;20497;-71
2022/05/09 09:34:21;;;;;;;0.35;0.30;;;26.30;38.50;;;;;;5047129;28;20052;-71
2022/05/09 09:36:54;;;;;;;0.00;0.00;;;25.70;38.40;;;;;;5062785;28;20028;-71
2022/05/09 09:39:20;;;;;;;0.10;0.10;;;26.90;36.10;;;;;;5061754;28;20021;-71
2022/05/09 09:41:50;;;;;;;0.00;0.00;;;27.10;38.30;;;;;;5061621;28;20025;-71
2022/05/09 09:44:23;;;;;;;0.10;0.10;;;27.80;36.40;;;;;;5043155;28;20124;-71
2022/05/09 09:47:09;;;;;;;0.00;0.00;;;27.80;35.10;;;;;;5059578;28;20037;-71
2022/05/09 09:49:43;;;;;;;0.10;0.05;;;28.00;36.10;;;;;;5047386;28;20041;-71
2022/05/09 09:52:38;;;;;;;0.10;0.10;;;27.80;34.70;;;;;;5045652;28;20032;-71
2022/05/09 09:55:21;;;;;;;0.10;0.10;;;28.00;36.90;;;;;;5059870;28;20033;-72
2022/05/09 09:57:48;;;;;;;0.00;0.00;;;28.70;37.20;;;;;;5060947;28;20040;-71
2022/05/09 10:00:23;;;;;;;0.10;0.10;;;27.50;34.10;;;;;;5042747;28;20029;-71
2022/05/09 10:02:50;;;;;;;0.00;0.00;;;28.10;36.40;;;;;;5056188;28;20045;-71
2022/05/09 10:05:19;;;;;;;0.13;0.10;;;28.60;36.90;;;;;;5047743;28;20032;-65
2022/05/09 10:07:46;;;;;;;0.17;0.10;;;28.00;33.90;;;;;;5054642;28;20063;-67
2022/05/09 10:10:12;;;;;;;0.20;0.20;;;28.00;34.20;;;;;;5045189;28;20021;-65
2022/05/09 10:12:42;;;;;;;0.00;0.00;;;28.40;35.00;;;;;;5048035;28;20035;-68
2022/05/09 10:15:36;;;;;;;0.20;0.10;;;28.20;34.90;;;;;;5055637;28;20070;-66
2022/05/09 10:18:23;;;;;;;0.00;0.00;;;28.70;35.90;;;;;;5040872;28;20485;-67
2022/05/09 10:20:51;;;;;;;0.03;0.03;;;28.30;32.70;;;;;;5047955;28;20043;-68
2022/05/09 10:26:28;;;;;;;0.10;0.10;;;28.30;35.70;;;;;;5052680;28;20036;-69
2022/05/09 10:28:56;;;;;;;0.00;0.00;;;28.70;34.20;;;;;;5052949;28;20036;-66
2022/05/09 10:31:34;;;;;;;0.00;0.00;;;27.30;32.40;;;;;;5051333;28;20108;-66
2022/05/09 10:34:26;;;;;;;0.08;0.08;;;28.00;35.80;;;;;;5047900;28;20461;-67
2022/05/09 10:36:58;;;;;;;0.00;0.00;;;28.80;35.20;;;;;;5041806;28;20036;-67
2022/05/09 10:39:33;;;;;;;0.00;0.00;;;29.00;34.40;;;;;;5044786;28;20033;-69
2022/05/09 10:42:04;;;;;;;0.00;0.00;;;28.90;35.20;;;;;;5045596;28;20017;-75
2022/05/09 10:44:44;;;;;;;0.00;0.00;;;29.00;34.60;;;;;;5054626;28;20025;-75
2022/05/09 10:47:18;;;;;;;0.22;0.20;;;29.60;34.70;;;;;;5047330;28;20028;-75
2022/05/09 10:50:09;;;;;;;0.00;0.00;;;30.50;33.90;;;;;;5058612;28;20033;-75
2022/05/09 10:52:42;;;;;;;;;;;30.40;33.10;;;;;;5067542;28;20030;-75
2022/05/09 10:55:18;;;;;;;0.03;0.03;;;30.30;33.60;;;;;;5059114;28;19909;-73
2022/05/09 10:57:55;;;;;;;0.10;0.10;;;30.80;34.50;;;;;;5071833;28;20048;-74
2022/05/09 11:00:25;;;;;;;0.03;0.03;;;30.80;33.00;;;;;;5042790;28;20037;-76
2022/05/09 11:03:08;;;;;;;0.00;0.00;;;29.30;33.00;;;;;;5067225;28;20025;-75
2022/05/09 11:06:02;;;;;;;0.10;0.10;;;30.10;33.20;;;;;;5054504;28;20064;-76
2022/05/09 11:08:43;;;;;;;0.05;0.05;;;29.60;32.70;;;;;;5056186;28;20523;-76
2022/05/09 11:11:17;;;;;;;0.00;0.00;;;29.40;33.00;;;;;;5053175;28;20472;-76
2022/05/09 11:14:08;;;;;;;0.00;0.00;;;29.60;33.50;;;;;;5050266;28;20041;-74
2022/05/09 11:16:47;;;;;;;;;;;29.40;33.10;;;;;;5054033;28;20037;-70
2022/05/09 11:19:29;;;;;;;0.32;0.30;;;28.50;32.60;;;;;;5057687;28;20297;-65
2022/05/09 11:22:21;;;;;;;0.08;0.08;;;29.60;34.90;;;;;;5053825;28;20054;-76
2022/05/09 11:24:56;;;;;;;0.08;0.08;;;29.70;34.40;;;;;;5053063;28;20036;-72
2022/05/09 11:27:34;;;;;;;0.32;0.10;;;30.30;35.10;;;;;;5059336;28;20029;-76
2022/05/09 11:30:21;;;;;;;0.10;0.10;;;29.60;33.70;;;;;;5054599;28;20072;-74
2022/05/09 11:33:14;;;;;;;0.10;0.10;;;29.70;35.20;;;;;;5051501;28;20025;-75
2022/05/09 11:35:40;;;;;;;0.10;0.10;;;29.60;33.40;;;;;;5044588;28;20021;-75
2022/05/09 11:38:24;;;;;;;0.00;0.00;;;29.20;34.00;;;;;;5034236;28;20038;-76
2022/05/09 11:40:52;;;;;;;0.00;0.00;;;28.40;34.90;;;;;;5050139;28;20026;-76
2022/05/09 11:43:37;;;;;;;0.00;0.00;;;28.70;35.50;;;;;;5054478;28;20033;-75
2022/05/09 11:46:21;;;;;;;0.20;0.20;;;28.90;36.00;;;;;;5045557;28;20040;-75
2022/05/09 11:49:19;;;;;;;0.05;0.05;;;29.40;33.20;;;;;;5051956;28;20040;-75
2022/05/09 11:51:56;;;;;;;0.08;0.08;;;29.60;36.30;;;;;;5056315;28;20114;-75
2022/05/09 11:54:36;;;;;;;0.10;0.10;;;29.50;35.40;;;;;;5045783;28;20061;-75
2022/05/09 11:57:17;;;;;;;0.00;0.00;;;29.50;34.80;;;;;;5044126;28;20044;-75
2022/05/09 11:59:52;;;;;;;0.10;0.10;;;29.20;33.80;;;;;;5045871;28;20030;-76
2022/05/09 12:02:49;;;;;;;0.00;0.00;;;29.20;35.70;;;;;;5060137;28;20043;-76
2022/05/09 12:05:27;;;;;;;0.00;0.00;;;29.40;34.30;;;;;;5053703;28;20327;-75
2022/05/09 12:08:02;;;;;;;0.00;0.00;;;30.40;34.70;;;;;;5055483;28;20044;-75
2022/05/09 12:10:30;;;;;;;0.00;0.00;;;30.30;33.90;;;;;;5048341;28;20083;-76
2022/05/09 12:13:06;;;;;;;0.10;0.10;;;30.30;31.80;;;;;;5044067;28;20053;-76
2022/05/09 12:15:33;;;;;;;0.20;0.15;;;30.70;34.40;;;;;;5051403;28;20029;-76
2022/05/09 12:17:58;;;;;;;0.00;0.00;;;30.30;33.50;;;;;;5063049;28;20246;-76
2022/05/09 12:20:27;;;;;;;0.10;0.10;;;30.00;33.20;;;;;;5062644;28;20424;-75
2022/05/09 12:23:00;;;;;;;0.00;0.00;;;30.00;33.70;;;;;;5061609;28;20024;-76
2022/05/09 12:25:41;;;;;;;0.38;0.20;;;30.10;34.10;;;;;;5057296;28;20033;-76
2022/05/09 12:28:24;;;;;;;0.17;0.10;;;29.60;34.50;;;;;;5063664;28;20051;-76
2022/05/09 12:31:04;;;;;;;0.10;0.10;;;30.20;33.10;;;;;;5061512;28;20029;-76
2022/05/09 12:33:50;;;;;;;0.00;0.00;;;29.10;32.80;;;;;;5043490;28;20068;-76
2022/05/09 12:36:15;;;;;;;0.03;0.03;;;29.40;35.30;;;;;;5054634;28;20028;-76
2022/05/09 12:38:47;;;;;;;0.10;0.10;;;29.20;33.70;;;;;;5060797;28;20056;-76
2022/05/09 12:41:21;;;;;;;0.00;0.00;;;29.60;34.20;;;;;;5062915;28;20036;-76
2022/05/09 12:44:19;;;;;;;0.10;0.10;;;29.20;34.40;;;;;;5061210;28;20029;-76
2022/05/09 12:46:59;;;;;;;0.00;0.00;;;28.50;34.80;;;;;;5060933;28;20056;-76
2022/05/09 12:49:41;;;;;;;0.20;0.10;;;28.80;34.90;;;;;;5058839;28;20036;-76
2022/05/09 12:52:10;;;;;;;0.30;0.10;;;28.70;36.10;;;;;;5059131;28;20044;-76
2022/05/09 12:54:39;;;;;;;0.08;0.08;;;28.70;36.10;;;;;;5061738;28;20044;-76
2022/05/09 12:57:05;;;;;;;0.00;0.00;;;29.00;36.70;;;;;;5059483;28;20021;-76
2022/05/09 12:59:49;;;;;;;0.00;0.00;;;28.60;34.20;;;;;;5060584;28;20025;-76
2022/05/09 13:02:22;;;;;;;0.00;0.00;;;28.20;34.40;;;;;;5061851;28;20057;-76
2022/05/09 13:04:49;;;;;;;0.00;0.00;;;28.10;36.80;;;;;;5060995;28;20021;-75
2022/05/09 13:07:15;;;;;;;0.00;0.00;;;28.20;35.80;;;;;;5041061;28;20021;-75
2022/05/09 13:09:53;;;;;;;0.00;0.00;;;28.50;35.70;;;;;;5046005;28;20033;-76
2022/05/09 13:12:29;;;;;;;0.00;0.00;;;28.50;34.70;;;;;;5041750;28;20025;-76
2022/05/09 13:14:59;;;;;;;0.10;0.10;;;28.60;36.50;;;;;;5058717;28;20581;-75